createdAt,value
2019-04-21T00:00:45.574Z,2.70
2019-04-21T00:11:15.274Z,5.63
2019-04-21T00:16:04.908Z,8.07
2019-04-21T00:21:14.881Z,5.70
2019-04-21T00:26:30.285Z,3.97
2019-04-21T00:31:36.714Z,3.47
2019-04-21T00:36:34.500Z,3.60
2019-04-21T00:41:55.839Z,3.80
2019-04-21T00:46:53.455Z,3.80
2019-04-21T00:52:46.211Z,3.97
2019-04-21T00:57:45.223Z,4.70
2019-04-21T01:02:53.696Z,4.10
2019-04-21T01:07:54.638Z,3.67
2019-04-21T01:13:02.957Z,3.67
2019-04-21T01:18:06.392Z,3.73
2019-04-21T01:22:51.641Z,4.23
2019-04-21T01:28:13.535Z,4.20
2019-04-21T01:33:30.762Z,4.40
2019-04-21T01:38:35.306Z,3.50
2019-04-21T01:43:37.539Z,3.00
2019-04-21T01:48:40.307Z,3.73
2019-04-21T01:54:03.309Z,3.03
2019-04-21T01:58:57.324Z,2.63
2019-04-21T02:04:15.407Z,2.62
2019-04-21T02:09:22.919Z,2.97
2019-04-21T02:14:31.806Z,3.13
2019-04-21T02:19:29.821Z,3.50
2019-04-21T02:29:47.127Z,2.70
2019-04-21T02:45:17.579Z,3.27
2019-04-21T03:00:45.060Z,3.10
2019-04-21T03:06:08.347Z,3.00
2019-04-21T03:21:22.252Z,4.17
2019-04-21T03:26:36.620Z,3.13
2019-04-21T03:32:05.659Z,3.87
2019-04-21T03:42:04.430Z,3.20
2019-04-21T03:47:08.322Z,2.97
2019-04-21T03:52:11.112Z,2.57
2019-04-21T03:57:34.335Z,3.20
2019-04-21T04:02:42.673Z,3.37
2019-04-21T04:07:59.066Z,3.10
2019-04-21T04:13:01.423Z,3.55
2019-04-21T04:18:33.912Z,3.33
2019-04-21T04:23:07.885Z,3.90
2019-04-21T04:28:40.595Z,4.07
2019-04-21T04:33:27.913Z,3.43
2019-04-21T04:38:41.670Z,3.33
2019-04-21T04:43:37.211Z,3.50
2019-04-21T04:48:45.197Z,3.30
2019-04-21T05:09:13.106Z,4.00
2019-04-21T05:19:34.861Z,4.27
2019-04-21T05:24:16.518Z,3.63
2019-04-21T05:29:24.763Z,4.37
2019-04-21T05:34:46.769Z,4.07
2019-04-21T05:39:57.009Z,4.23
2019-04-21T05:45:07.853Z,3.90
2019-04-21T05:50:14.619Z,3.90
2019-04-21T05:55:26.145Z,3.80
2019-04-21T06:00:54.907Z,3.57
2019-04-21T06:05:49.191Z,3.80
2019-04-21T06:10:47.690Z,3.83
2019-04-21T06:21:04.092Z,3.90
2019-04-21T06:26:19.811Z,3.27
2019-04-21T06:31:31.801Z,2.60
2019-04-21T06:36:45.189Z,2.70
2019-04-21T06:41:41.434Z,3.40
2019-04-21T06:46:44.908Z,4.70
2019-04-21T06:51:55.997Z,4.93
2019-04-21T06:56:58.660Z,5.15
2019-04-21T07:02:30.647Z,4.95
2019-04-21T07:07:14.085Z,4.33
2019-04-21T07:12:18.655Z,5.23
2019-04-21T07:17:30.631Z,4.67
2019-04-21T07:22:36.859Z,5.03
2019-04-21T07:27:43.446Z,4.50
2019-04-21T07:32:59.526Z,4.58
2019-04-21T07:37:53.610Z,4.35
2019-04-21T07:42:51.363Z,4.50
2019-04-21T07:48:08.347Z,4.85
2019-04-21T07:53:30.349Z,4.72
2019-04-21T07:58:26.171Z,3.90
2019-04-21T08:03:35.520Z,4.28
2019-04-21T08:08:42.355Z,3.90
2019-04-21T08:13:53.555Z,3.85
2019-04-21T08:18:53.570Z,4.13
2019-04-21T08:23:55.326Z,3.70
2019-04-21T08:29:13.233Z,4.03
2019-04-21T08:34:15.037Z,4.00
2019-04-21T08:39:23.972Z,3.50
2019-04-21T08:44:35.225Z,3.35
2019-04-21T08:49:36.389Z,3.85
2019-04-21T08:54:40.935Z,3.47
2019-04-21T09:00:01.403Z,3.37
2019-04-21T09:04:58.690Z,3.25
2019-04-21T09:10:10.771Z,3.00
2019-04-21T09:15:15.874Z,3.20
2019-04-21T09:20:46.123Z,2.92
2019-04-21T09:26:00.410Z,3.27
2019-04-21T09:30:48.943Z,3.40
2019-04-21T09:36:04.573Z,2.70
2019-04-21T09:41:20.848Z,2.80
2019-04-21T09:46:27.621Z,2.50
2019-04-21T09:51:32.678Z,2.83
2019-04-21T09:56:46.254Z,2.70
2019-04-21T10:01:55.533Z,2.50
2019-04-21T10:06:51.962Z,2.50
2019-04-21T10:11:57.077Z,1.97
2019-04-21T10:17:23.936Z,1.80
2019-04-21T10:22:28.884Z,1.40
2019-04-21T10:27:34.753Z,1.50
2019-04-21T10:32:40.630Z,1.52
2019-04-21T10:37:59.427Z,1.65
2019-04-21T10:42:52.294Z,1.90
2019-04-21T10:47:58.693Z,1.30
2019-04-21T10:53:23.123Z,1.40
2019-04-21T10:58:34.127Z,1.30
2019-04-21T11:03:44.746Z,1.22
2019-04-21T11:08:53.890Z,1.52
2019-04-21T11:13:56.868Z,1.50
2019-04-21T11:19:02.072Z,1.32
2019-04-21T11:24:08.062Z,1.37
2019-04-21T11:29:14.966Z,1.42
2019-04-21T11:34:21.108Z,1.37
2019-04-21T11:39:39.113Z,1.42
2019-04-21T11:44:37.231Z,2.60
2019-04-21T11:49:43.087Z,2.02
2019-04-21T11:54:48.979Z,1.60
2019-04-21T11:59:55.434Z,1.80
2019-04-21T12:05:01.391Z,1.67
2019-04-21T12:10:06.106Z,1.40
2019-04-21T12:15:13.903Z,1.50
2019-04-21T12:20:19.051Z,1.50
2019-04-21T12:25:27.234Z,1.98
2019-04-21T12:30:37.863Z,1.87
2019-04-21T12:35:43.798Z,1.90
2019-04-21T12:40:48.614Z,1.60
2019-04-21T12:45:53.870Z,2.20
2019-04-21T12:50:59.829Z,1.83
2019-04-21T12:56:05.438Z,1.90
2019-04-21T13:01:10.781Z,1.80
2019-04-21T13:06:15.946Z,2.10
2019-04-21T13:11:21.429Z,1.92
2019-04-21T13:16:27.594Z,2.20
2019-04-21T13:21:32.238Z,1.90
2019-04-21T13:26:45.365Z,2.58
2019-04-21T13:31:45.520Z,2.27
2019-04-21T13:36:51.675Z,1.90
2019-04-21T13:42:09.837Z,2.15
2019-04-21T13:47:04.879Z,2.20
2019-04-21T13:52:10.954Z,2.00
2019-04-21T13:57:16.681Z,2.37
2019-04-21T14:02:22.630Z,2.30
2019-04-21T14:07:30.352Z,2.30
2019-04-21T14:12:36.091Z,2.12
2019-04-21T14:17:40.800Z,2.15
2019-04-21T14:22:46.456Z,1.98
2019-04-21T14:27:52.563Z,2.02
2019-04-21T14:32:58.097Z,1.92
2019-04-21T14:38:03.015Z,1.80
2019-04-21T14:43:08.110Z,2.15
2019-04-21T14:48:30.345Z,1.73
2019-04-21T14:53:56.522Z,2.15
2019-04-21T14:59:03.994Z,1.90
2019-04-21T15:04:09.808Z,1.80
2019-04-21T15:09:15.356Z,1.80
2019-04-21T15:14:20.378Z,1.90
2019-04-21T15:19:26.504Z,1.80
2019-04-21T15:24:32.110Z,1.82
2019-04-21T15:29:38.366Z,1.80
2019-04-21T15:34:44.259Z,2.05
2019-04-21T15:39:49.234Z,1.87
2019-04-21T15:44:56.693Z,1.80
2019-04-21T15:50:08.369Z,1.98
2019-04-21T15:55:12.899Z,1.90
2019-04-21T16:00:40.511Z,1.98
2019-04-21T16:05:46.649Z,2.20
2019-04-21T16:10:56.587Z,1.65
2019-04-21T16:15:58.820Z,1.82
2019-04-21T16:21:04.262Z,1.85
2019-04-21T16:26:10.862Z,1.60
2019-04-21T16:31:16.388Z,1.95
2019-04-21T16:36:21.289Z,1.57
2019-04-21T16:41:31.976Z,2.20
2019-04-21T16:46:37.756Z,2.77
2019-04-21T16:51:44.222Z,1.53
2019-04-21T16:57:28.028Z,1.72
2019-04-21T17:02:32.882Z,1.72
2019-04-21T17:07:45.063Z,1.70
2019-04-21T17:12:51.374Z,1.63
2019-04-21T17:18:13.368Z,1.77
2019-04-21T17:23:04.037Z,1.45
2019-04-21T17:28:09.827Z,1.60
2019-04-21T17:33:21.132Z,2.02
2019-04-21T17:38:22.098Z,1.82
2019-04-21T17:43:27.621Z,1.50
2019-04-21T17:48:32.467Z,1.35
2019-04-21T17:54:07.848Z,1.50
2019-04-21T17:59:47.633Z,1.80
2019-04-21T18:04:42.629Z,1.70
2019-04-21T18:09:49.902Z,1.47
2019-04-21T18:14:32.741Z,1.67
2019-04-21T18:19:43.132Z,1.40
2019-04-21T18:24:55.798Z,2.50
2019-04-21T18:29:55.983Z,2.00
2019-04-21T18:35:19.017Z,1.80
2019-04-21T18:40:31.926Z,1.67
2019-04-21T18:46:06.880Z,1.90
2019-04-21T18:51:04.730Z,1.77
2019-04-21T18:56:08.278Z,2.10
2019-04-21T19:01:18.256Z,2.07
2019-04-21T19:06:26.728Z,2.00
2019-04-21T19:11:53.476Z,2.10
2019-04-21T19:17:17.070Z,1.90
2019-04-21T19:22:11.875Z,2.10
2019-04-21T19:32:27.293Z,1.90
2019-04-21T19:37:18.918Z,2.43
2019-04-21T19:42:32.330Z,3.47
2019-04-21T19:47:48.803Z,3.33
2019-04-21T19:52:43.733Z,3.93
2019-04-21T19:57:41.038Z,4.47
2019-04-21T20:02:54.525Z,4.70
2019-04-21T20:08:17.340Z,3.10
2019-04-21T20:13:36.520Z,2.60
2019-04-21T20:18:24.472Z,2.60
2019-04-21T20:23:24.988Z,3.13
2019-04-21T20:28:38.833Z,2.50
2019-04-21T20:33:57.980Z,2.73
2019-04-21T20:38:45.243Z,3.20
2019-04-21T20:44:05.919Z,2.37
2019-04-21T20:49:04.615Z,2.50
2019-04-21T20:54:16.040Z,2.03
2019-04-21T20:59:19.716Z,1.57
2019-04-21T21:04:26.968Z,1.93
2019-04-21T21:09:32.416Z,2.12
2019-04-21T21:14:42.521Z,2.03
2019-04-21T21:19:53.265Z,1.93
2019-04-21T21:24:56.775Z,1.97
2019-04-21T21:29:58.394Z,2.57
2019-04-21T21:35:08.310Z,2.20
2019-04-21T21:40:18.664Z,2.40
2019-04-21T21:45:10.243Z,2.10
2019-04-21T21:50:23.305Z,2.10
2019-04-21T21:55:19.294Z,2.10
2019-04-21T22:00:27.985Z,2.08
2019-04-21T22:05:42.219Z,2.00
2019-04-21T22:10:41.202Z,2.00
2019-04-21T22:15:48.285Z,1.87
2019-04-21T22:21:09.310Z,1.90
2019-04-21T22:26:03.126Z,1.80
2019-04-21T22:31:16.393Z,2.27
2019-04-21T22:36:26.751Z,2.53
2019-04-21T22:41:28.944Z,1.87
2019-04-21T22:46:28.564Z,2.07
2019-04-21T22:51:40.550Z,1.83
2019-04-21T22:56:50.407Z,2.17
2019-04-21T23:01:49.905Z,2.13
2019-04-21T23:06:56.646Z,1.90
2019-04-21T23:12:01.414Z,1.93
2019-04-21T23:17:29.856Z,2.07
2019-04-21T23:22:31.287Z,1.90
2019-04-21T23:27:33.986Z,2.13
2019-04-21T23:32:35.997Z,1.65
2019-04-21T23:37:40.869Z,2.07
2019-04-21T23:42:42.418Z,1.93
2019-04-21T23:47:57.846Z,1.90
2019-04-21T23:52:53.310Z,1.97
2019-04-21T23:58:06.968Z,1.47
